Delta State, Mississippi
Current Conditions -  °F | °C
As of 5:35 AM on Friday 24 Oct 2014 (Local Time) from KRNV Reporting Station
Clear Clear  
Wind Chill: 46°   Ceiling: Unl
Heat Index: 46°   Visibility: 7mi
Dew Point: 46°   Wind: 3mph
Humidity: 100%   Direction: 340°NNW
Pressure: 30.14"   Gusts: NA
Location:  33.7476°N, 90.8364°W
Report Text: KRNV 241035Z AUTO 34003KT 7SM CLR 08/08 A3014 RMK AO2 T00800080
Loading
Personal Weather Stations






























Interactive Weather Map
Tropical Storm Tracking
New forecast layout! Learn more

10-Day Weather Forecast

Advertisements
Track Severe Weather on mobile